LGAD/PYR METAR and TAF weather

Enter ICAO airport designator
Station Type Date Time Source
LGAD METAR 2019/08/24 17:20 UTC NOAA

LGAD 241720Z 34007KT CAVOK 32/12 Q1011


Station Type Date Time Source
LGAD Decoded METAR 2019/08/24 17:20 UTC NOAA

Station name not available
Aug 24, 2019 - 01:20 PM EDT / 2019.08.24 1720 UTC
Wind: from the NNW (340 degrees) at 8 MPH (7 KT):0
Visibility: greater than 7 mile(s):0
Temperature: 89 F (32 C)
Dew Point: 53 F (12 C)
Relative Humidity: 29%
Pressure (altimeter): 29.85 in. Hg (1011 hPa)
ob: LGAD 241720Z 34007KT CAVOK 32/12 Q1011
cycle: 17

Station Type Date Time Source
LGAD TAF 2011/03/20 15:06 UTC NOAA

TAF TAF LGAD 201400Z 2015/2103 06010KT 9999 FEW020 BKN080 PROB40
TEMPO 2015/2021 6000 RA SCT020 BKN080 PROB30
TEMPO 2015/2021 4000 TSRA FEW018CB SCT025 BKN080

Example: see airport list